Time;durP1;ratioP1;P1;durP2;ratioP2;P2;SDS_P1;SDS_P2;PMS_P1;PMS_P2;Temp;Humidity;BMP_temperature;BMP_pressure;BME280_temperature;BME280_humidity;BME280_pressure;Samples;Min_cycle;Max_cycle;Signal;HPM_P1;HPM_P2
2022/11/03 00:01:51;;;;;;;;;9.33;6.00;;;;;14.09;67.26;101219.63;5034435;28;45334;-46
2022/11/03 00:04:19;;;;;;;;;7.67;4.33;;;;;14.13;67.72;101223.66;5034655;28;45420;-46
2022/11/03 00:06:47;;;;;;;;;8.00;3.67;;;;;14.12;67.70;101227.34;5034733;28;45544;-46
2022/11/03 00:09:14;;;;;;;;;7.00;6.00;;;;;14.04;68.47;101229.97;5034364;28;46186;-46
2022/11/03 00:11:40;;;;;;;;;10.00;7.00;;;;;13.97;68.55;101220.88;5034406;28;45480;-49
2022/11/03 00:14:08;;;;;;;;;9.33;7.00;;;;;14.03;67.92;101222.94;5034541;28;45431;-48
2022/11/03 00:16:33;;;;;;;;;11.33;4.67;;;;;14.03;68.16;101214.06;5034600;28;45468;-46
2022/11/03 00:18:59;;;;;;;;;7.00;3.00;;;;;13.98;68.52;101210.00;5051630;28;46294;-47
2022/11/03 00:21:24;;;;;;;;;3.33;3.33;;;;;14.03;68.05;101212.25;5056463;28;45372;-48
2022/11/03 00:23:50;;;;;;;;;7.00;4.00;;;;;14.02;68.57;101215.06;5057191;28;45269;-48
2022/11/03 00:26:23;;;;;;;;;9.00;7.00;;;;;13.99;68.71;101205.53;5060616;28;45240;-48
2022/11/03 00:28:54;;;;;;;;;5.67;4.00;;;;;13.98;68.47;101203.81;5059876;28;47419;-50
2022/11/03 00:31:25;;;;;;;;;8.00;7.00;;;;;13.98;68.35;101206.50;5060150;28;45414;-49
2022/11/03 00:33:51;;;;;;;;;10.00;7.00;;;;;13.97;68.48;101204.84;5060204;28;45324;-47
2022/11/03 00:36:19;;;;;;;;;10.00;5.00;;;;;13.95;68.81;101193.47;5060432;28;45426;-48
2022/11/03 00:38:46;;;;;;;;;4.33;4.33;;;;;13.96;68.86;101189.78;5059928;28;46352;-48
2022/11/03 00:41:12;;;;;;;;;4.00;4.00;;;;;13.99;68.58;101186.81;5059733;28;45436;-47
2022/11/03 00:43:38;;;;;;;;;8.00;5.33;;;;;14.00;68.52;101190.31;5060074;28;45342;-47
2022/11/03 00:46:05;;;;;;;;;7.33;4.00;;;;;14.01;68.60;101181.28;5059990;28;45654;-47
2022/11/03 00:48:32;;;;;;;;;5.00;5.00;;;;;14.01;68.54;101179.44;5059713;28;45954;-48
2022/11/03 00:51:11;;;;;;;;;7.67;4.67;;;;;14.00;68.38;101171.59;5059883;28;45305;-46
2022/11/03 00:53:49;;;;;;;;;5.33;3.67;;;;;14.00;68.72;101169.75;5060060;28;45322;-47
2022/11/03 00:56:20;;;;;;;;;5.33;3.00;;;;;13.98;68.67;101164.53;5060112;28;45463;-46
2022/11/03 00:58:45;;;;;;;;;6.00;4.00;;;;;13.99;68.59;101165.41;5059920;28;47150;-46
2022/11/03 01:01:35;;;;;;;;;8.00;6.33;;;;;13.97;68.61;101162.88;5059880;28;45375;-48
2022/11/03 01:06:51;;;;;;;;;7.67;6.00;;;;;13.93;69.25;101149.97;5060105;28;45233;-47
2022/11/03 01:09:17;;;;;;;;;7.00;5.00;;;;;13.94;69.02;101154.31;5059502;28;47192;-47
2022/11/03 01:12:03;;;;;;;;;8.33;6.33;;;;;13.91;68.82;101139.44;5059389;28;45621;-47
2022/11/03 01:14:41;;;;;;;;;9.00;6.00;;;;;13.92;69.25;101140.28;5059684;28;45219;-48
2022/11/03 01:17:14;;;;;;;;;13.00;7.00;;;;;13.92;69.19;101132.25;5059887;28;45498;-47
2022/11/03 01:19:39;;;;;;;;;5.00;4.67;;;;;13.90;69.17;101129.72;5059190;28;47234;-46
2022/11/03 01:22:05;;;;;;;;;5.00;4.00;;;;;13.93;69.05;101125.91;5059135;28;45328;-47
2022/11/03 01:24:31;;;;;;;;;8.00;5.33;;;;;13.95;69.05;101119.41;5058362;28;45435;-46
2022/11/03 01:26:56;;;;;;;;;3.33;1.67;;;;;13.94;69.27;101115.03;5059650;28;45205;-45
2022/11/03 01:29:22;;;;;;;;;8.00;7.33;;;;;13.93;69.33;101108.03;5059220;28;45393;-48
2022/11/03 01:31:47;;;;;;;;;11.67;8.00;;;;;13.96;69.25;101104.19;5059243;28;45385;-48
2022/11/03 01:34:15;;;;;;;;;7.33;3.33;;;;;13.99;69.17;101106.56;5059290;28;45261;-46
2022/11/03 01:36:41;;;;;;;;;7.67;4.33;;;;;13.97;69.38;101103.19;5058834;28;45429;-47
2022/11/03 01:39:09;;;;;;;;;4.00;4.00;;;;;14.00;69.10;101094.84;5058972;28;46529;-46
2022/11/03 01:41:35;;;;;;;;;11.00;6.67;;;;;14.00;69.08;101078.81;5058929;28;45364;-48
2022/11/03 01:44:25;;;;;;;;;8.67;4.00;;;;;14.02;68.71;101076.78;5059131;28;45358;-48
2022/11/03 01:47:00;;;;;;;;;7.67;6.00;;;;;14.02;68.65;101081.31;5051690;28;45499;-45
2022/11/03 01:49:40;;;;;;;;;10.67;5.33;;;;;13.98;69.07;101060.22;5057756;28;45673;-45
2022/11/03 01:52:22;;;;;;;;;9.33;4.00;;;;;13.95;69.05;101063.25;5058607;28;45345;-46
2022/11/03 01:54:55;;;;;;;;;14.33;7.00;;;;;13.95;69.26;101070.44;5058956;28;45344;-46
2022/11/03 01:57:26;;;;;;;;;9.00;4.00;;;;;13.94;68.93;101047.34;5059066;28;45457;-47
2022/11/03 01:59:56;;;;;;;;;4.00;4.00;;;;;13.92;69.18;101052.03;5058899;28;46263;-47
2022/11/03 02:02:22;;;;;;;;;8.00;6.67;;;;;13.91;69.47;101035.16;5058585;28;45300;-46
2022/11/03 02:04:47;;;;;;;;;7.00;3.00;;;;;13.88;69.56;101042.66;5058842;28;45454;-47
2022/11/03 02:07:21;;;;;;;;;5.33;4.00;;;;;13.84;69.83;101034.09;5058991;28;45304;-47
2022/11/03 02:09:46;;;;;;;;;6.67;4.00;;;;;13.81;69.71;101030.91;5058595;28;45375;-47
2022/11/03 02:12:13;;;;;;;;;6.67;5.00;;;;;13.81;69.81;101033.59;5058602;28;45544;-46
2022/11/03 02:14:48;;;;;;;;;4.33;4.33;;;;;13.80;69.75;101031.91;5058696;28;45276;-48
2022/11/03 02:17:15;;;;;;;;;6.67;4.00;;;;;13.73;69.52;101019.16;5058712;28;45362;-48
2022/11/03 02:19:48;;;;;;;;;4.00;3.00;;;;;13.71;70.47;101023.03;5058394;28;46327;-48
2022/11/03 02:22:34;;;;;;;;;7.67;4.00;;;;;13.69;69.94;101020.53;5058114;28;45409;-47
2022/11/03 02:25:31;;;;;;;;;9.00;3.00;;;;;13.70;69.89;101002.63;5058531;28;45473;-47
2022/11/03 02:27:57;;;;;;;;;3.67;3.67;;;;;13.73;70.00;101007.63;5058569;28;45320;-47
2022/11/03 02:30:24;;;;;;;;;5.67;4.00;;;;;13.66;70.19;101007.47;5058139;28;46251;-47
2022/11/03 02:33:01;;;;;;;;;4.00;4.00;;;;;13.65;69.71;100994.25;5058155;28;45312;-47
2022/11/03 02:35:37;;;;;;;;;6.33;3.67;;;;;13.59;69.94;101003.75;5058410;28;45263;-47
2022/11/03 02:38:08;;;;;;;;;4.67;3.33;;;;;13.55;70.12;100991.69;5058272;28;45306;-47
2022/11/03 02:40:39;;;;;;;;;7.67;3.33;;;;;13.51;70.36;100979.66;5057984;28;46278;-46
2022/11/03 02:43:07;;;;;;;;;4.67;3.00;;;;;13.52;70.46;100978.66;5057805;28;45482;-47
2022/11/03 02:45:33;;;;;;;;;9.00;5.67;;;;;13.55;70.24;100977.50;5058062;28;45202;-46
2022/11/03 02:48:01;;;;;;;;;5.33;4.33;;;;;13.54;70.58;100982.00;5056990;28;45331;-48
2022/11/03 02:50:29;;;;;;;;;7.33;4.00;;;;;13.55;70.05;100966.81;5058432;28;46251;-49
2022/11/03 02:52:54;;;;;;;;;2.67;2.33;;;;;13.53;70.50;100968.81;5058044;28;45346;-48
2022/11/03 02:55:52;;;;;;;;;7.00;4.00;;;;;13.54;70.03;100957.97;5058020;28;45328;-48
2022/11/03 02:58:36;;;;;;;;;7.00;4.00;;;;;13.53;70.50;100958.13;5058220;28;45220;-46
2022/11/03 03:01:16;;;;;;;;;13.33;5.67;;;;;13.50;70.37;100940.56;5057627;28;46209;-46
2022/11/03 03:03:48;;;;;;;;;4.67;3.67;;;;;13.50;70.72;100943.25;5057732;28;45350;-46
2022/11/03 03:06:24;;;;;;;;;4.00;4.00;;;;;13.49;70.26;100936.22;5057969;28;45433;-47
2022/11/03 03:08:55;;;;;;;;;5.67;3.33;;;;;13.52;70.08;100933.22;5057816;28;45391;-47
2022/11/03 03:11:35;;;;;;;;;5.00;5.00;;;;;13.55;70.56;100916.84;5057554;28;46220;-47
2022/11/03 03:14:07;;;;;;;;;6.67;3.33;;;;;13.52;70.14;100909.16;5056459;28;45326;-48
2022/11/03 03:16:40;;;;;;;;;7.00;6.33;;;;;13.56;70.03;100894.47;5057674;28;45314;-46
2022/11/03 03:19:36;;;;;;;;;7.33;1.67;;;;;13.41;70.20;100878.25;5057796;28;45346;-47
2022/11/03 03:22:11;;;;;;;;;8.33;4.00;;;;;13.46;70.68;100889.28;5057475;28;45349;-46
2022/11/03 03:24:45;;;;;;;;;7.00;5.00;;;;;13.36;70.19;100874.38;5057468;28;45525;-47
2022/11/03 03:27:13;;;;;;;;;7.00;4.67;;;;;13.39;70.13;100868.69;5057800;28;45407;-46
2022/11/03 03:29:48;;;;;;;;;8.00;3.00;;;;;13.45;70.18;100871.56;5057667;28;45529;-46
2022/11/03 03:32:18;;;;;;;;;7.00;4.67;;;;;13.36;70.25;100851.16;5057159;28;45495;-46
2022/11/03 03:34:48;;;;;;;;;8.00;4.00;;;;;13.46;70.42;100857.19;5057233;28;45280;-46
2022/11/03 03:37:16;;;;;;;;;9.67;3.67;;;;;13.47;70.19;100850.84;5057421;28;45417;-47
2022/11/03 03:39:49;;;;;;;;;7.33;4.00;;;;;13.39;70.40;100817.94;5057458;28;45377;-47
2022/11/03 03:42:16;;;;;;;;;5.67;3.67;;;;;13.37;70.04;100804.75;5057048;28;46215;-48
2022/11/03 03:44:44;;;;;;;;;10.00;3.67;;;;;13.45;69.93;100827.97;5057134;28;45322;-49
2022/11/03 03:47:16;;;;;;;;;7.00;6.67;;;;;13.42;70.07;100825.63;5057003;28;45209;-48
2022/11/03 03:49:42;;;;;;;;;7.67;3.00;;;;;13.40;70.13;100825.81;5057229;28;45283;-46
2022/11/03 03:52:08;;;;;;;;;5.33;3.33;;;;;13.40;70.50;100835.63;5056874;28;46093;-48
2022/11/03 03:54:34;;;;;;;;;4.00;3.00;;;;;13.43;70.01;100829.97;5057018;28;45441;-48
2022/11/03 03:57:04;;;;;;;;;6.67;3.33;;;;;13.44;70.13;100824.47;5056832;28;45429;-47
2022/11/03 03:59:30;;;;;;;;;9.67;4.00;;;;;13.46;69.68;100843.00;5060489;28;45342;-47
2022/11/03 04:01:56;;;;;;;;;3.00;3.00;;;;;13.46;70.01;100853.69;5063526;28;46173;-47
2022/11/03 04:04:22;;;;;;;;;4.00;4.00;;;;;13.45;70.00;100852.88;5063450;28;45286;-47
2022/11/03 04:06:47;;;;;;;;;7.00;4.67;;;;;13.47;70.00;100853.53;5063914;28;45490;-47
2022/11/03 04:09:13;;;;;;;;;9.33;4.67;;;;;13.44;69.93;100831.63;5063805;28;45408;-46
2022/11/03 04:22:46;;;;;;;;;9.67;4.00;;;;;13.37;70.07;100822.63;5063249;28;45859;-47
2022/11/03 04:25:11;;;;;;;;;8.67;4.00;;;;;13.33;70.24;100814.09;5063092;28;45331;-50
2022/11/03 04:27:39;;;;;;;;;6.00;4.67;;;;;13.43;70.54;100819.28;5062388;28;45302;-47
2022/11/03 04:30:09;;;;;;;;;15.67;8.33;;;;;13.42;70.50;100801.56;5063535;28;45462;-49
2022/11/03 04:32:35;;;;;;;;;4.67;4.67;;;;;13.40;70.64;100784.84;5063355;28;45416;-46
2022/11/03 04:35:06;;;;;;;;;9.00;6.00;;;;;13.45;70.50;100785.22;5063328;28;45351;-47
2022/11/03 04:37:31;;;;;;;;;9.00;4.00;;;;;13.40;70.17;100782.19;5063555;28;45344;-48
2022/11/03 04:40:00;;;;;;;;;8.33;4.33;;;;;13.39;70.27;100770.66;5063578;28;45398;-47
2022/11/03 04:42:29;;;;;;;;;10.67;4.00;;;;;13.46;70.41;100776.19;5064406;28;46262;-49
2022/11/03 04:44:56;;;;;;;;;4.00;2.67;;;;;13.47;70.05;100772.53;5064295;28;45235;-48
2022/11/03 04:47:21;;;;;;;;;7.00;4.33;;;;;13.44;70.28;100767.50;5064428;28;45215;-49
2022/11/03 04:49:47;;;;;;;;;6.00;4.00;;;;;13.44;70.27;100754.13;5064717;28;45208;-47
2022/11/03 04:52:18;;;;;;;;;8.00;5.00;;;;;13.41;70.43;100757.16;5061928;28;46293;-46
2022/11/03 04:54:46;;;;;;;;;6.00;3.33;;;;;13.39;70.66;100761.81;5063073;28;45398;-47
2022/11/03 04:57:14;;;;;;;;;4.00;4.00;;;;;13.34;70.48;100745.44;5063185;28;45310;-45
2022/11/03 04:59:42;;;;;;;;;6.33;6.33;;;;;13.35;70.35;100741.75;5063313;28;45339;-49
2022/11/03 05:02:16;;;;;;;;;3.67;3.67;;;;;13.40;70.52;100740.28;5062801;28;47053;-48
2022/11/03 05:04:42;;;;;;;;;4.67;4.67;;;;;13.38;70.82;100741.44;5063085;28;45430;-48
2022/11/03 05:07:35;;;;;;;;;7.00;6.33;;;;;13.34;70.59;100732.91;5063100;28;45527;-47
2022/11/03 05:10:01;;;;;;;;;5.00;3.67;;;;;13.36;70.67;100724.75;5000290;28;45442;-48
2022/11/03 05:12:29;;;;;;;;;4.00;4.00;;;;;13.28;70.74;100698.03;4996557;28;45555;-48
2022/11/03 05:14:54;;;;;;;;;4.00;4.00;;;;;13.31;70.55;100706.53;4997383;28;45385;-48
2022/11/03 05:17:25;;;;;;;;;5.33;4.00;;;;;13.22;70.94;100689.66;4997435;28;45757;-47
2022/11/03 05:19:56;;;;;;;;;7.67;4.00;;;;;13.36;70.68;100706.06;4997674;28;45361;-49
2022/11/03 05:22:25;;;;;;;;;7.33;4.00;;;;;13.34;70.53;100702.69;4996345;28;45371;-48
2022/11/03 05:24:57;;;;;;;;;7.00;4.00;;;;;13.35;70.65;100704.38;4997058;28;45433;-46
2022/11/03 05:27:23;;;;;;;;;7.33;5.33;;;;;13.40;70.55;100691.34;4997201;28;45330;-47
2022/11/03 05:29:51;;;;;;;;;3.33;3.33;;;;;13.36;70.44;100684.69;4997529;28;45600;-50
2022/11/03 05:32:29;;;;;;;;;4.00;4.00;;;;;13.22;71.05;100652.25;4996369;28;45383;-47
2022/11/03 05:34:55;;;;;;;;;8.33;5.67;;;;;13.38;70.54;100666.63;4996934;28;45366;-46
2022/11/03 05:37:25;;;;;;;;;7.00;6.00;;;;;13.38;70.98;100667.47;4997289;28;45528;-49
2022/11/03 05:39:52;;;;;;;;;8.00;4.00;;;;;13.35;70.97;100661.63;4997190;28;45431;-47
2022/11/03 05:42:31;;;;;;;;;6.00;3.33;;;;;13.34;70.58;100674.13;4996960;28;46028;-46
2022/11/03 05:44:57;;;;;;;;;7.33;5.33;;;;;13.36;70.51;100660.63;4996622;28;45408;-47
2022/11/03 05:47:36;;;;;;;;;6.67;5.00;;;;;13.37;70.87;100632.91;5038586;28;45339;-48
2022/11/03 05:50:15;;;;;;;;;4.33;3.67;;;;;13.42;70.22;100626.06;5059120;28;45477;-49
2022/11/03 05:52:43;;;;;;;;;9.33;4.00;;;;;13.39;70.83;100622.88;5058830;28;45619;-46
2022/11/03 05:55:18;;;;;;;;;8.67;6.33;;;;;13.29;70.44;100595.50;5058547;28;45351;-46
2022/11/03 05:57:44;;;;;;;;;7.67;7.00;;;;;13.35;71.01;100613.53;5057712;28;45240;-49
2022/11/03 06:00:24;;;;;;;;;6.67;4.00;;;;;13.30;70.62;100606.00;5058990;28;45449;-48
2022/11/03 06:02:49;;;;;;;;;7.00;4.67;;;;;13.23;71.33;100600.53;5058561;28;47324;-46
2022/11/03 06:05:21;;;;;;;;;7.33;6.00;;;;;13.28;71.01;100604.53;5058545;28;45218;-47
2022/11/03 06:07:48;;;;;;;;;9.00;7.00;;;;;13.27;71.07;100606.34;5058752;28;45433;-47
2022/11/03 06:10:25;;;;;;;;;8.67;6.33;;;;;13.28;71.18;100609.88;5057392;28;45431;-45
2022/11/03 06:12:54;;;;;;;;;3.00;2.33;;;;;13.30;71.14;100597.16;5058517;28;46055;-47
2022/11/03 06:15:26;;;;;;;;;9.33;5.67;;;;;13.32;70.59;100598.69;5058230;28;45480;-47
2022/11/03 06:17:52;;;;;;;;;9.67;4.00;;;;;13.25;71.25;100586.16;5058269;28;45229;-46
2022/11/03 06:20:20;;;;;;;;;9.67;3.00;;;;;13.19;71.34;100588.47;5058672;28;45266;-46
2022/11/03 06:22:47;;;;;;;;;15.33;3.33;;;;;13.22;71.29;100593.50;5057868;28;45342;-47
2022/11/03 06:25:28;;;;;;;;;4.00;4.00;;;;;13.22;70.91;100581.94;5058360;28;45287;-45
2022/11/03 06:27:59;;;;;;;;;9.67;7.00;;;;;13.21;71.28;100574.94;5058601;28;45317;-46
2022/11/03 06:30:28;;;;;;;;;4.67;3.00;;;;;13.12;71.24;100546.56;5058625;28;45226;-46
2022/11/03 06:33:12;;;;;;;;;8.00;7.00;;;;;13.23;71.65;100567.59;5058060;28;46190;-47
2022/11/03 06:35:38;;;;;;;;;7.67;7.00;;;;;13.24;71.08;100571.97;5058165;28;45365;-45
2022/11/03 06:38:13;;;;;;;;;5.00;4.00;;;;;13.22;71.28;100560.56;5058407;28;45390;-49
2022/11/03 06:40:39;;;;;;;;;7.67;3.33;;;;;13.16;71.34;100553.25;5058258;28;45334;-47
2022/11/03 06:43:23;;;;;;;;;9.33;5.33;;;;;13.18;71.34;100549.38;5057953;28;46956;-45
2022/11/03 06:46:01;;;;;;;;;8.00;5.33;;;;;13.19;70.64;100537.72;5057743;28;45222;-45
2022/11/03 06:48:33;;;;;;;;;8.00;4.00;;;;;13.17;71.31;100530.88;5058181;28;45393;-48
2022/11/03 06:51:00;;;;;;;;;3.33;3.00;;;;;13.17;71.02;100539.72;5058071;28;45567;-45
2022/11/03 06:53:31;;;;;;;;;6.00;4.00;;;;;13.16;71.01;100527.38;5057643;28;45445;-47
2022/11/03 06:55:56;;;;;;;;;9.00;6.00;;;;;13.15;71.54;100519.53;5057864;28;45441;-46
2022/11/03 06:58:27;;;;;;;;;8.33;4.00;;;;;13.07;71.18;100516.88;5057619;28;45390;-46
2022/11/03 07:00:56;;;;;;;;;7.00;7.00;;;;;13.06;71.47;100508.03;5057824;28;45541;-46
2022/11/03 07:03:26;;;;;;;;;8.33;7.33;;;;;13.17;70.98;100514.84;5057478;28;45399;-45
2022/11/03 07:06:43;;;;;;;;;7.00;7.00;;;;;13.16;70.97;100499.84;5057647;28;45422;-45
2022/11/03 07:09:24;;;;;;;;;7.00;4.00;;;;;13.14;71.28;100496.47;4995534;28;45539;-47
2022/11/03 07:11:53;;;;;;;;;8.00;6.00;;;;;13.12;71.39;100482.47;4995873;28;45502;-46
2022/11/03 07:14:26;;;;;;;;;6.33;4.00;;;;;13.04;70.83;100479.81;4995408;28;46120;-46
2022/11/03 07:16:51;;;;;;;;;11.67;6.67;;;;;13.13;71.07;100492.97;4979496;28;45406;-49
2022/11/03 07:19:26;;;;;;;;;7.00;3.00;;;;;13.07;70.82;100474.97;4995525;28;45567;-48
2022/11/03 07:21:55;;;;;;;;;7.33;3.33;;;;;13.12;70.51;100487.81;4995538;28;45427;-48
2022/11/03 07:24:30;;;;;;;;;6.33;3.00;;;;;13.06;70.37;100467.97;4995208;28;46270;-46
2022/11/03 07:27:13;;;;;;;;;8.67;5.33;;;;;13.07;70.66;100453.63;4995097;28;46073;-48
2022/11/03 07:29:40;;;;;;;;;5.33;4.00;;;;;13.11;70.61;100468.28;4995519;28;45492;-47
2022/11/03 07:32:17;;;;;;;;;4.67;4.67;;;;;13.07;70.97;100464.28;4995570;28;45401;-48
2022/11/03 07:34:44;;;;;;;;;8.67;4.00;;;;;13.12;70.34;100456.59;4994268;28;45303;-48
2022/11/03 07:37:19;;;;;;;;;4.00;4.00;;;;;13.17;70.21;100448.06;4995088;28;45559;-48
2022/11/03 07:39:46;;;;;;;;;6.67;3.00;;;;;13.20;70.38;100445.06;4995292;28;45400;-48
2022/11/03 07:42:37;;;;;;;;;6.00;2.00;;;;;13.18;70.05;100429.19;4978734;28;45614;-47
2022/11/03 07:45:40;;;;;;;;;4.00;3.00;;;;;13.24;70.16;100433.06;5032133;28;45443;-45
2022/11/03 07:48:35;;;;;;;;;5.33;3.00;;;;;13.27;69.84;100439.88;5057161;28;45438;-49
2022/11/03 07:51:14;;;;;;;;;7.67;4.00;;;;;13.28;69.28;100434.41;5055892;28;45265;-47
2022/11/03 07:53:46;;;;;;;;;6.00;3.33;;;;;13.26;69.74;100438.22;5057347;28;45351;-48
2022/11/03 07:56:21;;;;;;;;;8.67;6.00;;;;;13.22;69.49;100427.88;5056690;28;46132;-45
2022/11/03 07:59:10;;;;;;;;;5.67;5.33;;;;;13.23;69.29;100431.38;5056840;28;45205;-46
2022/11/03 08:01:48;;;;;;;;;8.33;4.33;;;;;13.26;69.70;100419.53;5056410;28;45339;-45
2022/11/03 08:04:23;;;;;;;;;7.00;4.00;;;;;13.31;69.12;100420.66;5057202;28;45273;-50
2022/11/03 08:06:50;;;;;;;;;4.00;4.00;;;;;13.29;68.84;100404.00;5056823;28;45433;-48
2022/11/03 08:09:15;;;;;;;;;10.00;5.33;;;;;13.25;69.45;100404.53;5056698;28;45263;-48
2022/11/03 08:11:40;;;;;;;;;7.67;3.33;;;;;13.20;68.96;100397.00;5055323;28;45330;-45
2022/11/03 08:14:06;;;;;;;;;7.00;4.00;;;;;13.34;68.82;100401.63;5057130;28;45169;-47
2022/11/03 08:16:31;;;;;;;;;7.33;7.00;;;;;13.35;68.72;100384.59;5056397;28;45487;-47
2022/11/03 08:18:57;;;;;;;;;6.33;6.33;;;;;13.41;68.59;100388.44;5056717;28;45285;-49
2022/11/03 08:21:22;;;;;;;;;7.00;4.00;;;;;13.45;68.40;100395.09;5056855;28;45742;-49
2022/11/03 08:23:47;;;;;;;;;5.00;4.00;;;;;13.49;68.09;100391.06;5056995;28;45280;-48
2022/11/03 08:26:13;;;;;;;;;4.33;4.00;;;;;13.55;68.22;100382.34;5056543;28;46131;-46
2022/11/03 08:28:39;;;;;;;;;5.00;4.00;;;;;13.59;67.77;100380.16;5056648;28;45255;-47
2022/11/03 08:31:04;;;;;;;;;3.33;3.33;;;;;13.62;67.81;100377.13;5056900;28;45220;-48
2022/11/03 08:33:31;;;;;;;;;3.33;3.33;;;;;13.62;67.61;100382.47;5057006;28;45491;-47
2022/11/03 08:35:57;;;;;;;;;9.00;5.00;;;;;13.63;67.34;100381.47;5056532;28;46131;-48
2022/11/03 08:38:22;;;;;;;;;7.00;7.00;;;;;13.65;67.65;100374.94;5056507;28;45446;-47
2022/11/03 08:40:47;;;;;;;;;8.67;7.00;;;;;13.72;67.38;100377.75;5056549;28;45321;-46
2022/11/03 08:43:13;;;;;;;;;10.33;4.00;;;;;13.75;67.26;100382.75;5056839;28;45462;-46
2022/11/03 08:45:38;;;;;;;;;6.67;5.67;;;;;13.79;67.01;100369.84;5056307;28;46146;-48
2022/11/03 08:48:04;;;;;;;;;7.67;7.00;;;;;13.82;66.87;100358.78;5059696;28;45440;-45
2022/11/03 08:50:29;;;;;;;;;8.67;5.67;;;;;13.83;66.49;100352.47;5060144;28;45360;-47
2022/11/03 08:52:55;;;;;;;;;8.00;7.00;;;;;13.85;66.49;100339.72;5060294;28;45394;-46
2022/11/03 08:55:20;;;;;;;;;9.33;7.67;;;;;13.85;66.47;100331.72;5059844;28;45232;-46
2022/11/03 08:57:46;;;;;;;;;8.33;5.33;;;;;13.90;66.40;100324.81;5059747;28;45299;-48
2022/11/03 09:00:12;;;;;;;;;7.00;5.00;;;;;13.84;66.35;100301.47;5059737;28;45239;-47
2022/11/03 09:02:38;;;;;;;;;4.67;4.67;;;;;13.96;66.21;100307.22;5059996;28;45228;-47
2022/11/03 09:05:04;;;;;;;;;8.00;3.00;;;;;13.99;65.78;100320.25;5059640;28;45882;-48
2022/11/03 09:07:30;;;;;;;;;7.00;4.67;;;;;13.98;66.08;100310.53;5059780;28;45175;-45
2022/11/03 09:09:55;;;;;;;;;4.67;4.67;;;;;14.01;65.87;100296.81;5059470;28;45418;-49
2022/11/03 09:12:21;;;;;;;;;8.67;7.00;;;;;14.00;65.75;100291.66;5059806;28;45347;-45
2022/11/03 09:14:46;;;;;;;;;6.00;3.33;;;;;14.06;65.65;100294.44;5058283;28;47071;-47
2022/11/03 09:17:12;;;;;;;;;5.67;4.33;;;;;14.10;66.15;100293.06;5059547;28;45334;-48
2022/11/03 09:19:37;;;;;;;;;12.33;8.33;;;;;14.15;65.49;100281.81;5059721;28;45335;-47
2022/11/03 09:22:02;;;;;;;;;8.00;5.00;;;;;14.14;65.86;100264.13;5059720;28;45444;-47
2022/11/03 09:24:29;;;;;;;;;4.00;4.00;;;;;14.09;65.62;100267.34;5059497;28;45977;-47
2022/11/03 09:26:54;;;;;;;;;4.67;2.33;;;;;14.09;65.34;100259.31;5059123;28;45529;-51
2022/11/03 09:29:20;;;;;;;;;5.00;3.67;;;;;14.15;65.44;100269.28;5059366;28;45465;-46
2022/11/03 09:31:45;;;;;;;;;8.33;4.00;;;;;14.16;65.05;100244.22;5059582;28;45279;-48
2022/11/03 09:34:11;;;;;;;;;9.00;7.00;;;;;14.19;65.18;100249.16;5059106;28;46245;-47
2022/11/03 09:36:37;;;;;;;;;6.33;6.33;;;;;14.20;65.10;100228.63;5059323;28;45378;-48
2022/11/03 09:39:02;;;;;;;;;5.33;4.00;;;;;14.20;64.75;100239.31;5059412;28;45332;-49
2022/11/03 09:41:29;;;;;;;;;8.00;5.00;;;;;14.22;64.70;100231.94;5059226;28;45435;-48
2022/11/03 09:43:57;;;;;;;;;7.67;7.00;;;;;14.23;65.03;100245.13;5058961;28;47357;-47
2022/11/03 09:46:23;;;;;;;;;10.00;7.00;;;;;14.28;64.71;100230.38;5058776;28;45328;-50
2022/11/03 09:48:50;;;;;;;;;9.00;4.00;;;;;14.28;64.61;100230.38;5058955;28;45335;-46
2022/11/03 09:51:21;;;;;;;;;2.00;2.00;;;;;14.28;64.72;100220.50;5074837;28;45405;-49
2022/11/03 09:53:47;;;;;;;;;6.67;4.00;;;;;14.27;64.41;100218.00;5058845;28;47337;-49
2022/11/03 09:56:12;;;;;;;;;7.00;4.00;;;;;14.30;64.46;100217.66;5058814;28;45362;-49
2022/11/03 09:58:39;;;;;;;;;9.00;5.33;;;;;14.35;64.60;100215.25;5058454;28;45432;-49
2022/11/03 10:01:05;;;;;;;;;9.33;5.00;;;;;14.39;64.41;100205.84;5058912;28;45477;-49
2022/11/03 10:03:31;;;;;;;;;9.00;6.67;;;;;14.43;64.27;100204.44;5058614;28;45236;-49
2022/11/03 10:05:56;;;;;;;;;7.67;5.33;;;;;14.45;64.08;100205.94;5058780;28;45854;-50
2022/11/03 10:08:29;;;;;;;;;9.00;5.67;;;;;14.47;63.75;100193.19;5059001;28;45451;-47
2022/11/03 10:10:55;;;;;;;;;5.33;5.33;;;;;14.48;63.85;100180.63;5058734;28;45444;-48
2022/11/03 10:13:38;;;;;;;;;4.67;3.33;;;;;14.54;63.66;100187.97;5058350;28;45765;-47
2022/11/03 10:16:06;;;;;;;;;6.67;6.67;;;;;14.58;63.34;100178.56;5058458;28;45307;-50
2022/11/03 10:18:33;;;;;;;;;7.33;6.67;;;;;14.63;63.20;100184.16;5058489;28;45323;-47
2022/11/03 10:21:04;;;;;;;;;10.00;5.00;;;;;14.65;62.87;100183.97;5058835;28;45300;-48
2022/11/03 10:23:29;;;;;;;;;10.00;9.00;;;;;14.68;62.90;100172.91;5058222;28;45409;-47
2022/11/03 10:26:08;;;;;;;;;10.00;6.33;;;;;14.67;62.88;100161.38;5058252;28;45326;-49
2022/11/03 10:28:33;;;;;;;;;10.67;8.00;;;;;14.77;62.72;100161.06;5058577;28;45435;-46
2022/11/03 10:31:05;;;;;;;;;4.33;2.33;;;;;14.82;62.04;100153.28;5058833;28;45439;-49
2022/11/03 10:33:36;;;;;;;;;9.33;5.00;;;;;14.89;62.05;100150.69;5058347;28;46237;-46
2022/11/03 10:36:14;;;;;;;;;8.00;6.00;;;;;14.95;62.07;100152.59;5058817;28;45295;-46
2022/11/03 10:38:39;;;;;;;;;7.33;4.33;;;;;15.07;61.22;100144.91;5058803;28;45396;-47
2022/11/03 10:41:11;;;;;;;;;7.67;4.00;;;;;15.13;61.36;100142.31;5058855;28;45403;-45
2022/11/03 10:43:38;;;;;;;;;5.00;3.00;;;;;15.14;60.97;100143.13;5058219;28;46235;-46
2022/11/03 10:46:21;;;;;;;;;8.67;6.33;;;;;15.16;60.77;100138.41;5057833;28;45399;-48
2022/11/03 10:49:11;;;;;;;;;0.67;0.67;;;;;15.20;60.92;100151.22;5058177;28;45335;-49
2022/11/03 10:51:37;;;;;;;;;12.67;7.00;;;;;15.19;61.17;100125.44;5058243;28;45403;-47
2022/11/03 10:54:04;;;;;;;;;5.00;3.00;;;;;15.26;60.18;100122.03;5057789;28;46356;-47
2022/11/03 10:56:31;;;;;;;;;3.00;3.00;;;;;15.28;60.33;100117.28;5057858;28;45323;-46
2022/11/03 10:58:59;;;;;;;;;5.67;5.00;;;;;15.37;60.49;100124.16;5058019;28;45405;-46
2022/11/03 11:01:25;;;;;;;;;5.33;5.00;;;;;15.49;60.23;100114.56;5058040;28;45265;-44
2022/11/03 11:03:51;;;;;;;;;5.00;3.00;;;;;15.69;59.93;100118.28;5057728;28;46009;-49
2022/11/03 11:06:21;;;;;;;;;3.00;2.67;;;;;15.85;59.42;100121.69;5057744;28;45300;-48
2022/11/03 11:08:49;;;;;;;;;6.33;3.00;;;;;15.83;59.19;100096.91;5056896;28;45477;-48
2022/11/03 11:11:16;;;;;;;;;5.33;4.00;;;;;15.90;59.10;100098.59;5057909;28;45319;-49
2022/11/03 11:13:42;;;;;;;;;5.00;3.00;;;;;15.90;59.05;100113.88;5057540;28;46908;-46
2022/11/03 11:16:57;;;;;;;;;7.67;4.00;;;;;15.93;59.20;100108.94;5057655;28;45289;-47
2022/11/03 11:19:24;;;;;;;;;4.00;4.00;;;;;15.95;59.21;100101.53;4917839;28;45348;-46
2022/11/03 11:21:52;;;;;;;;;9.33;5.67;;;;;15.99;59.45;100093.09;4918183;28;45505;-49
2022/11/03 11:24:42;;;;;;;;;7.00;5.00;;;;;15.97;59.27;100085.25;4917972;28;46383;-48
2022/11/03 11:27:32;;;;;;;;;8.00;6.33;;;;;15.98;59.18;100076.16;4917742;28;45437;-45
2022/11/03 11:30:06;;;;;;;;;5.67;4.00;;;;;15.96;59.92;100064.78;4917810;28;45498;-55
2022/11/03 11:32:40;;;;;;;;;8.67;8.67;;;;;15.94;60.03;100089.13;4918035;28;45527;-47
2022/11/03 11:35:07;;;;;;;;;5.33;3.00;;;;;15.89;60.07;100088.91;4917657;28;45625;-46
2022/11/03 11:37:34;;;;;;;;;3.00;3.00;;;;;15.90;61.90;100079.84;4917715;28;45422;-46
2022/11/03 11:40:01;;;;;;;;;8.00;5.33;;;;;15.85;63.58;100079.59;4917297;28;45495;-45
2022/11/03 11:42:26;;;;;;;;;6.00;4.33;;;;;15.79;63.25;100076.88;4917615;28;45388;-46
2022/11/03 11:44:53;;;;;;;;;3.00;3.00;;;;;15.77;63.32;100073.56;4917442;28;46081;-46
2022/11/03 11:47:23;;;;;;;;;6.67;4.33;;;;;15.71;64.08;100078.66;4917665;28;45198;-44
2022/11/03 11:50:02;;;;;;;;;6.33;5.00;;;;;15.68;64.47;100067.53;4917544;28;45397;-46
2022/11/03 11:52:28;;;;;;;;;7.33;5.00;;;;;15.65;64.88;100057.19;4917702;28;45558;-47
2022/11/03 11:54:54;;;;;;;;;4.00;3.67;;;;;15.61;64.99;100043.31;4929720;28;46163;-44